Time;durP1;ratioP1;P1;durP2;ratioP2;P2;SDS_P1;SDS_P2;PMS_P1;PMS_P2;Temp;Humidity;BMP_temperature;BMP_pressure;BME280_temperature;BME280_humidity;BME280_pressure;Samples;Min_cycle;Max_cycle;Signal;HPM_P1;HPM_P2
2023/12/09 00:00:36;;;;;;;71.85;27.30;;;;;;;;;;4833834;29;20050;-71
2023/12/09 00:03:03;;;;;;;72.10;27.15;;;;;;;;;;4817329;29;20156;-71
2023/12/09 00:05:28;;;;;;;68.45;26.40;;;;;;;;;;4817227;29;20493;-71
2023/12/09 00:07:54;;;;;;;64.10;26.90;;;;;;;;;;4817026;29;20061;-71
2023/12/09 00:10:20;;;;;;;78.30;25.02;;;;;;;;;;4817215;29;20054;-71
2023/12/09 00:12:48;;;;;;;73.38;27.17;;;;;;;;;;4827205;29;20352;-71
2023/12/09 00:15:14;;;;;;;67.80;26.55;;;;;;;;;;4833922;29;20050;-71
2023/12/09 00:17:40;;;;;;;68.55;25.65;;;;;;;;;;4833372;29;20054;-71
2023/12/09 00:20:07;;;;;;;66.43;24.83;;;;;;;;;;4817323;29;20052;-71
2023/12/09 00:22:33;;;;;;;74.65;24.63;;;;;;;;;;4817347;29;20050;-71
2023/12/09 00:24:59;;;;;;;64.72;24.50;;;8.60;99.90;;;;;;4817225;29;20045;-71
2023/12/09 00:27:25;;;;;;;68.95;24.67;;;;;;;;;;4817078;29;20046;-71
2023/12/09 00:29:51;;;;;;;74.68;25.23;;;;;;;;;;4817068;29;20096;-71
2023/12/09 00:32:17;;;;;;;67.20;25.10;;;;;;;;;;4817333;29;20096;-71
2023/12/09 00:34:43;;;;;;;61.28;23.75;;;;;;;;;;4816768;29;20420;-71
2023/12/09 00:37:10;;;;;;;65.85;22.98;;;;;;;;;;4816534;29;20060;-71
2023/12/09 00:46:04;;;;;;;63.55;24.17;;;;;;;;;;5100243;24;20067;-71
2023/12/09 00:48:30;;;;;;;59.08;22.75;;;;;;;;;;4813627;29;20062;-71
2023/12/09 00:50:56;;;;;;;69.18;22.77;;;;;;;;;;4817180;29;20053;-71
2023/12/09 00:53:22;;;;;;;65.70;23.10;;;;;;;;;;4818149;29;20069;-71
2023/12/09 00:55:48;;;;;;;62.33;21.65;;;;;;;;;;4802086;29;20054;-71
2023/12/09 00:58:14;;;;;;;66.00;22.60;;;;;;;;;;4818107;29;20133;-72
2023/12/09 01:00:40;;;;;;;60.80;23.25;;;;;;;;;;4818173;29;20054;-71
2023/12/09 01:03:06;;;;;;;59.00;22.65;;;;;;;;;;4801967;29;20131;-71
2023/12/09 01:05:32;;;;;;;56.38;23.23;;;;;;;;;;4801908;29;20046;-71
2023/12/09 01:07:58;;;;;;;57.22;22.08;;;;;;;;;;4801631;29;20090;-71
2023/12/09 01:10:24;;;;;;;74.30;23.88;;;;;;;;;;4801631;29;20812;-71
2023/12/09 01:12:49;;;;;;;62.63;22.33;;;8.60;99.90;;;;;;4801681;29;20050;-71
2023/12/09 01:15:16;;;;;;;47.65;19.50;;;;;;;;;;4818222;29;20046;-71
2023/12/09 01:17:41;;;;;;;50.10;22.20;;;;;;;;;;4801142;29;20081;-71
2023/12/09 01:20:08;;;;;;;51.88;22.48;;;;;;;;;;4801307;29;20133;-71
2023/12/09 01:22:34;;;;;;;55.63;22.20;;;;;;;;;;4817616;29;20061;-71
2023/12/09 01:24:59;;;;;;;67.57;23.63;;;8.70;99.90;;;;;;4801241;29;20138;-71
2023/12/09 01:27:25;;;;;;;52.47;21.83;;;;;;;;;;4817880;29;20048;-71
2023/12/09 01:29:51;;;;;;;53.42;21.35;;;;;;;;;;4801259;29;20053;-71
2023/12/09 01:32:17;;;;;;;59.92;21.27;;;;;;;;;;4816851;29;20057;-71
2023/12/09 01:34:44;;;;;;;58.40;23.15;;;;;;;;;;4817848;29;20498;-71
2023/12/09 01:37:10;;;;;;;57.22;22.20;;;;;;;;;;4816469;29;20458;-71
2023/12/09 01:39:40;;;;;;;53.78;19.85;;;;;;;;;;4800910;29;20054;-71
2023/12/09 01:42:06;;;;;;;55.78;21.38;;;;;;;;;;4800917;29;20069;-71
2023/12/09 01:47:49;;;;;;;48.08;18.77;;;;;;;;;;4815388;29;20062;-71
2023/12/09 01:50:15;;;;;;;53.08;21.25;;;;;;;;;;4831246;29;20114;-71
2023/12/09 01:52:41;;;;;;;52.90;20.70;;;;;;;;;;4832145;29;20054;-71
2023/12/09 01:55:10;;;;;;;46.92;21.17;;;;;;;;;;4815878;29;20108;-72
2023/12/09 01:57:36;;;;;;;63.35;20.85;;;;;;;;;;4828279;29;20050;-71
2023/12/09 02:00:06;;;;;;;46.97;19.98;;;8.40;99.90;;;;;;4815597;29;20561;-71
2023/12/09 02:02:32;;;;;;;55.58;20.50;;;;;;;;;;4815431;29;20054;-71
2023/12/09 02:04:59;;;;;;;45.85;20.90;;;;;;;;;;4841493;29;20493;-71
2023/12/09 02:07:25;;;;;;;61.97;20.60;;;;;;;;;;4817559;29;20054;-71
2023/12/09 02:09:52;;;;;;;49.72;19.88;;;;;;;;;;4817170;29;20050;-71
2023/12/09 02:12:18;;;;;;;62.50;19.70;;;;;;;;;;4816620;29;20046;-71
2023/12/09 02:15:03;;;;;;;54.70;22.15;;;;;;;;;;4815262;29;20102;-71
2023/12/09 02:17:29;;;;;;;;;;;;;;;;;;4817227;29;20046;-72
2023/12/09 02:19:55;;;;;;;53.75;20.33;;;;;;;;;;4816546;29;19947;-71
2023/12/09 02:22:21;;;;;;;46.65;20.42;;;;;;;;;;4815105;29;20050;-71
2023/12/09 02:28:31;;;;;;;50.58;19.23;;;;;;;;;;4817102;29;20053;-71
2023/12/09 02:31:03;;;;;;;55.05;19.27;;;;;;;;;;4815131;29;20046;-71
2023/12/09 02:33:30;;;;;;;46.85;17.98;;;;;;;;;;4815115;29;20042;-70
2023/12/09 02:35:56;;;;;;;46.75;19.13;;;;;;;;;;4817013;29;20061;-71
2023/12/09 02:40:58;;;;;;;41.05;17.60;;;;;;;;;;5288866;23;20084;-71
2023/12/09 02:43:24;;;;;;;55.58;19.38;;;;;;;;;;4826667;29;20065;-71
2023/12/09 02:45:50;;;;;;;46.53;17.25;;;;;;;;;;4832474;29;20048;-71
2023/12/09 02:48:16;;;;;;;52.17;19.10;;;;;;;;;;4847733;29;20057;-71
2023/12/09 02:50:42;;;;;;;46.08;18.23;;;;;;;;;;4831775;29;20061;-71
2023/12/09 02:53:08;;;;;;;46.08;17.60;;;;;;;;;;4828090;29;20049;-71
2023/12/09 02:55:34;;;;;;;51.33;18.80;;;;;;;;;;4823769;29;20060;-71
2023/12/09 02:58:00;;;;;;;52.05;17.95;;;;;;;;;;4824228;29;20098;-71
2023/12/09 03:00:26;;;;;;;48.22;19.35;;;;;;;;;;4845683;29;20053;-71
2023/12/09 03:02:52;;;;;;;56.88;18.30;;;;;;;;;;4824566;29;20045;-71
2023/12/09 03:08:41;;;;;;;45.38;19.50;;;;;;;;;;4911370;24;23644;-71
2023/12/09 03:11:07;;;;;;;43.63;18.05;;;;;;;;;;4834826;29;20065;-70
2023/12/09 03:13:33;;;;;;;53.08;19.05;;;;;;;;;;4852141;29;20132;-71
2023/12/09 03:15:59;;;;;;;49.55;17.67;;;;;;;;;;4835819;29;20053;-71
2023/12/09 03:18:25;;;;;;;41.33;17.48;;;;;;;;;;4835341;29;20519;-71
2023/12/09 03:20:51;;;;;;;53.50;19.35;;;;;;;;;;4852255;29;20053;-71
2023/12/09 03:23:17;;;;;;;45.67;18.45;;;;;;;;;;4852339;29;20496;-71
2023/12/09 03:25:43;;;;;;;46.22;17.65;;;;;;;;;;4835280;29;20053;-71
2023/12/09 03:28:09;;;;;;;48.30;19.83;;;;;;;;;;4835418;29;20176;-70
2023/12/09 03:30:35;;;;;;;42.10;17.02;;;8.30;99.90;;;;;;4852090;29;20132;-71
2023/12/09 03:33:01;;;;;;;47.67;18.23;;;;;;;;;;4820153;29;20449;-71
2023/12/09 03:35:27;;;;;;;45.58;17.52;;;;;;;;;;4836663;29;20049;-71
2023/12/09 03:37:53;;;;;;;38.40;15.20;;;;;;;;;;4834973;29;20054;-71
2023/12/09 03:40:19;;;;;;;33.88;15.77;;;;;;;;;;4835147;29;20612;-71
2023/12/09 03:42:45;;;;;;;51.00;17.27;;;;;;;;;;4835183;29;20053;-71
2023/12/09 03:45:11;;;;;;;40.40;17.75;;;;;;;;;;4835569;29;20128;-71
2023/12/09 03:47:37;;;;;;;41.70;16.75;;;;;;;;;;4835276;29;20473;-71
2023/12/09 03:50:03;;;;;;;40.03;16.30;;;;;;;;;;4834818;29;20579;-71
2023/12/09 03:52:29;;;;;;;41.65;16.58;;;;;;;;;;4834739;29;20076;-71
2023/12/09 03:54:55;;;;;;;46.17;17.30;;;;;;;;;;4835605;29;20137;-71
2023/12/09 03:57:21;;;;;;;38.10;14.98;;;;;;;;;;4832738;29;20061;-71
2023/12/09 03:59:48;;;;;;;43.90;16.23;;;;;;;;;;4834689;29;20077;-70
2023/12/09 04:02:14;;;;;;;39.70;16.55;;;;;;;;;;4848627;29;20490;-71
2023/12/09 04:04:40;;;;;;;42.55;15.57;;;;;;;;;;4833690;29;20161;-71
2023/12/09 04:07:06;;;;;;;41.67;15.60;;;;;;;;;;4834439;29;20053;-71
2023/12/09 04:09:32;;;;;;;43.92;15.15;;;;;;;;;;4834531;29;20068;-71
2023/12/09 04:12:01;;;;;;;43.80;14.73;;;8.30;99.90;;;;;;4835270;29;20092;-71
2023/12/09 04:14:27;;;;;;;38.30;15.23;;;;;;;;;;4834027;29;20137;-71
2023/12/09 04:16:53;;;;;;;45.60;15.10;;;;;;;;;;4850686;29;20779;-71
2023/12/09 04:19:19;;;;;;;47.28;15.50;;;;;;;;;;4831801;29;20084;-71
2023/12/09 04:21:45;;;;;;;48.60;15.75;;;;;;;;;;4831904;29;20077;-71
2023/12/09 04:24:11;;;;;;;36.72;14.20;;;;;;;;;;4831513;29;20553;-71
2023/12/09 04:26:37;;;;;;;37.90;14.73;;;;;;;;;;4833669;29;20050;-71
2023/12/09 04:29:06;;;;;;;42.75;14.45;;;;;;;;;;4832292;29;20106;-71
2023/12/09 04:31:32;;;;;;;41.28;15.32;;;;;;;;;;4834435;29;20143;-71
2023/12/09 04:34:11;;;;;;;53.45;15.30;;;;;;;;;;4838333;29;20049;-71
2023/12/09 04:36:37;;;;;;;41.63;14.30;;;;;;;;;;4829172;29;20123;-71
2023/12/09 04:39:03;;;;;;;31.02;14.02;;;;;;;;;;4819430;29;20049;-71
2023/12/09 04:41:29;;;;;;;36.50;13.77;;;;;;;;;;4850816;29;20056;-71
2023/12/09 04:43:55;;;;;;;38.53;13.75;;;;;;;;;;4834459;29;20053;-71
2023/12/09 04:46:21;;;;;;;45.80;14.65;;;;;;;;;;4829871;29;20525;-71
2023/12/09 04:48:47;;;;;;;46.53;12.95;;;;;;;;;;4829642;29;20412;-71
2023/12/09 04:51:13;;;;;;;40.83;12.80;;;;;;;;;;4830101;29;20495;-71
2023/12/09 04:53:39;;;;;;;35.90;13.05;;;;;;;;;;4826273;29;20057;-71
2023/12/09 04:56:06;;;;;;;39.00;12.73;;;;;;;;;;4848950;29;20049;-71
2023/12/09 04:58:32;;;;;;;44.17;14.32;;;;;;;;;;4817749;29;20136;-71
2023/12/09 05:00:58;;;;;;;41.03;12.77;;;;;;;;;;4833325;29;20052;-71
2023/12/09 05:03:24;;;;;;;47.97;13.57;;;;;;;;;;4831506;29;20784;-71
2023/12/09 05:05:50;;;;;;;39.03;12.30;;;;;;;;;;4830238;29;20134;-71
2023/12/09 05:08:17;;;;;;;40.28;12.27;;;;;;;;;;4829982;29;20054;-71
2023/12/09 05:10:43;;;;;;;36.28;13.02;;;;;;;;;;4832936;29;20096;-71
2023/12/09 05:13:09;;;;;;;39.92;12.70;;;;;;;;;;4830248;29;20057;-71
2023/12/09 05:15:45;;;;;;;32.55;12.88;;;;;;;;;;4831025;29;20092;-71
2023/12/09 05:18:11;;;;;;;;;;;;;;;;;;4829855;29;20064;-72
2023/12/09 05:20:37;;;;;;;38.97;12.82;;;;;;;;;;4825464;29;19924;-71
2023/12/09 05:23:03;;;;;;;38.42;12.60;;;;;;;;;;4832804;29;20046;-71
2023/12/09 05:25:29;;;;;;;34.38;12.07;;;;;;;;;;4844071;29;20735;-71
2023/12/09 05:27:55;;;;;;;35.83;11.80;;;;;;;;;;4849784;29;20060;-71
2023/12/09 05:30:22;;;;;;;38.20;12.10;;;;;;;;;;4833045;29;20057;-71
2023/12/09 05:32:47;;;;;;;35.35;11.85;;;8.40;99.90;;;;;;4829928;29;20049;-71
2023/12/09 05:35:13;;;;;;;36.92;13.43;;;;;;;;;;4830434;29;20045;-72
2023/12/09 05:37:39;;;;;;;30.90;11.50;;;;;;;;;;4841520;29;20049;-71
2023/12/09 05:40:06;;;;;;;36.60;11.73;;;;;;;;;;4836806;29;20142;-71
2023/12/09 05:42:32;;;;;;;30.55;11.20;;;;;;;;;;4833683;29;20053;-71
2023/12/09 05:44:58;;;;;;;27.73;12.00;;;;;;;;;;4820250;29;20045;-71
2023/12/09 05:47:25;;;;;;;42.83;12.88;;;;;;;;;;4827517;29;20056;-71
2023/12/09 05:49:51;;;;;;;33.05;11.45;;;;;;;;;;4829391;29;20988;-71
2023/12/09 05:52:17;;;;;;;33.88;11.30;;;;;;;;;;4836424;29;20420;-71
2023/12/09 05:54:43;;;;;;;34.75;11.23;;;;;;;;;;4852726;29;20092;-71
2023/12/09 05:57:09;;;;;;;39.40;12.13;;;;;;;;;;4853089;29;20129;-71
2023/12/09 05:59:35;;;;;;;32.35;12.38;;;;;;;;;;4852746;29;20045;-71
2023/12/09 06:02:01;;;;;;;27.92;12.45;;;;;;;;;;4852774;29;20049;-71
2023/12/09 06:04:27;;;;;;;37.97;11.93;;;;;;;;;;4833490;29;20052;-71
2023/12/09 06:06:53;;;;;;;32.10;12.38;;;;;;;;;;4847134;29;20064;-71
2023/12/09 06:09:19;;;;;;;25.60;9.00;;;;;;;;;;4832093;29;20140;-72
2023/12/09 06:11:45;;;;;;;31.20;11.85;;;;;;;;;;4835475;29;20130;-71
2023/12/09 06:14:11;;;;;;;36.00;12.73;;;;;;;;;;4852240;29;20457;-71
2023/12/09 06:16:37;;;;;;;41.40;12.90;;;;;;;;;;4832926;29;20041;-71
2023/12/09 06:19:03;;;;;;;42.38;13.35;;;;;;;;;;4835073;29;20420;-71
2023/12/09 06:21:29;;;;;;;36.55;11.75;;;;;;;;;;4834100;29;20056;-71
2023/12/09 06:23:55;;;;;;;35.47;11.85;;;;;;;;;;4832788;29;20662;-70
2023/12/09 06:26:21;;;;;;;38.90;11.77;;;;;;;;;;4829800;29;20049;-70
2023/12/09 06:28:47;;;;;;;37.45;11.73;;;;;;;;;;4848573;29;20057;-70
2023/12/09 06:31:13;;;;;;;21.17;10.50;;;;;;;;;;4834553;29;20053;-70
2023/12/09 06:33:40;;;;;;;39.08;11.70;;;;;;;;;;4833231;29;20049;-70
2023/12/09 06:36:06;;;;;;;28.70;11.23;;;;;;;;;;4850023;29;20129;-70
2023/12/09 06:38:37;;;;;;;22.95;11.13;;;;;;;;;;4852165;29;20559;-70
2023/12/09 06:41:03;;;;;;;32.85;12.00;;;;;;;;;;4835061;29;20042;-70
2023/12/09 06:46:52;;;;;;;40.20;13.32;;;;;;;;;;4852863;29;20132;-70
2023/12/09 06:49:19;;;;;;;30.25;11.07;;;;;;;;;;4834641;29;20205;-70
2023/12/09 06:51:49;;;;;;;32.10;10.55;;;;;;;;;;4852317;29;20583;-70
2023/12/09 06:54:15;;;;;;;24.90;10.27;;;;;;;;;;4835129;29;20049;-70
2023/12/09 06:56:41;;;;;;;31.92;10.85;;;;;;;;;;4829398;29;20054;-70
2023/12/09 06:59:07;;;;;;;28.70;10.75;;;;;;;;;;4834067;29;20045;-70
2023/12/09 07:01:33;;;;;;;30.15;10.15;;;;;;;;;;4833213;29;20500;-70
2023/12/09 07:03:59;;;;;;;29.10;11.40;;;;;;;;;;4830831;29;20053;-71
2023/12/09 07:06:27;;;;;;;36.22;11.05;;;;;;;;;;4849614;29;20037;-70
2023/12/09 07:08:53;;;;;;;27.23;9.68;;;;;;;;;;4849939;29;20108;-70
2023/12/09 07:11:21;;;;;;;34.17;9.82;;;;;;;;;;4834525;29;20132;-70
2023/12/09 07:13:47;;;;;;;32.53;10.52;;;;;;;;;;4819506;29;20408;-70
2023/12/09 07:16:13;;;;;;;22.85;9.05;;;;;;;;;;4830893;29;20828;-70
2023/12/09 07:18:50;;;;;;;36.58;10.52;;;;;;;;;;4832960;29;20068;-71
2023/12/09 07:21:16;;;;;;;32.10;9.25;;;;;;;;;;4829855;29;20045;-69
2023/12/09 07:23:43;;;;;;;28.60;10.60;;;;;;;;;;4835795;29;20085;-69
2023/12/09 07:26:09;;;;;;;31.38;7.53;;;;;;;;;;4819321;29;20052;-69
2023/12/09 07:28:36;;;;;;;29.75;9.63;;;;;;;;;;4833563;29;20056;-69
2023/12/09 07:31:02;;;;;;;32.45;9.52;;;;;;;;;;4848825;29;20075;-70
2023/12/09 07:33:28;;;;;;;20.55;7.53;;;;;;;;;;4845263;29;20129;-69
2023/12/09 07:35:54;;;;;;;17.98;7.00;;;;;;;;;;4831092;29;20049;-70
2023/12/09 07:38:21;;;;;;;25.90;8.45;;;;;;;;;;4833704;29;20045;-70
2023/12/09 07:40:48;;;;;;;25.10;8.70;;;;;;;;;;4832122;29;20049;-70
2023/12/09 07:43:14;;;;;;;30.52;8.90;;;;;;;;;;4828485;29;20049;-71
2023/12/09 07:45:40;;;;;;;23.17;7.18;;;;;;;;;;4831553;29;20053;-70
2023/12/09 07:48:07;;;;;;;23.35;8.80;;;;;;;;;;4850375;29;20734;-69
2023/12/09 07:50:34;;;;;;;28.77;9.07;;;;;;;;;;4834669;29;20049;-69
2023/12/09 07:53:00;;;;;;;26.98;9.23;;;;;;;;;;4849231;29;20061;-69
2023/12/09 07:55:26;;;;;;;23.65;8.90;;;;;;;;;;4852507;29;20044;-70
2023/12/09 07:57:52;;;;;;;31.80;8.93;;;;;;;;;;4835300;29;20822;-70
2023/12/09 08:00:18;;;;;;;26.63;8.40;;;;;;;;;;4834866;29;20054;-70
2023/12/09 08:02:44;;;;;;;32.15;8.55;;;;;;;;;;4828755;29;20059;-70
2023/12/09 08:05:11;;;;;;;27.20;8.77;;;;;;;;;;4832978;29;20746;-70
2023/12/09 08:07:38;;;;;;;25.55;8.15;;;;;;;;;;4834332;29;20049;-70
2023/12/09 08:10:04;;;;;;;29.45;9.43;;;;;;;;;;4831324;29;20865;-69
2023/12/09 08:12:31;;;;;;;23.90;8.68;;;;;;;;;;4832919;29;20077;-69
2023/12/09 08:14:57;;;;;;;25.98;8.63;;;;;;;;;;4834631;29;20084;-70
2023/12/09 08:17:23;;;;;;;33.28;8.20;;;;;;;;;;4851021;29;20049;-70
2023/12/09 08:19:49;;;;;;;32.08;9.20;;;;;;;;;;4837309;29;20082;-70
2023/12/09 08:22:15;;;;;;;24.63;9.48;;;;;;;;;;4847685;29;20049;-71
2023/12/09 08:24:41;;;;;;;24.48;7.68;;;;;;;;;;4828805;29;20060;-71
2023/12/09 08:27:07;;;;;;;32.35;8.27;;;;;;;;;;4831231;29;20049;-70
2023/12/09 08:29:34;;;;;;;28.90;8.57;;;;;;;;;;4843692;29;20129;-70
2023/12/09 08:32:00;;;;;;;26.70;7.50;;;;;;;;;;4849943;29;20771;-70
2023/12/09 08:34:26;;;;;;;29.23;8.30;;;;;;;;;;4829532;29;20057;-71
2023/12/09 08:36:52;;;;;;;21.30;6.95;;;;;;;;;;4846070;29;21634;-71
2023/12/09 08:39:18;;;;;;;34.05;8.43;;;;;;;;;;4849132;29;20058;-70
2023/12/09 08:41:44;;;;;;;20.85;6.55;;;;;;;;;;4827384;29;20070;-70
2023/12/09 08:44:10;;;;;;;29.92;8.13;;;;;;;;;;4836796;29;20094;-71
2023/12/09 08:46:36;;;;;;;35.38;9.65;;;;;;;;;;4833136;29;20050;-70
2023/12/09 08:49:03;;;;;;;14.70;4.97;;;;;;;;;;4834488;29;20045;-70
2023/12/09 08:51:29;;;;;;;25.85;7.45;;;;;;;;;;4833829;29;20086;-69
2023/12/09 08:53:55;;;;;;;22.88;7.60;;;;;;;;;;4850759;29;20064;-74
2023/12/09 08:56:21;;;;;;;24.67;6.90;;;;;;;;;;4833388;29;20050;-70
2023/12/09 08:58:47;;;;;;;18.52;5.22;;;;;;;;;;4817389;29;20053;-69
2023/12/09 09:01:13;;;;;;;19.92;5.28;;;;;;;;;;4836012;29;20049;-71
2023/12/09 09:03:39;;;;;;;29.42;6.47;;;;;;;;;;4823594;29;20127;-72
2023/12/09 09:06:05;;;;;;;21.35;6.53;;;;;;;;;;4845147;29;20042;-71
2023/12/09 09:08:31;;;;;;;21.38;6.50;;;;;;;;;;4850518;29;20058;-68
2023/12/09 09:10:58;;;;;;;23.30;5.63;;;;;;;;;;4840329;29;20421;-70
2023/12/09 09:13:24;;;;;;;19.90;6.43;;;;;;;;;;4834143;29;20052;-70
2023/12/09 09:15:50;;;;;;;20.63;6.60;;;;;;;;;;4835068;29;20057;-70
2023/12/09 09:18:17;;;;;;;21.52;6.07;;;;;;;;;;4834829;29;20113;-70
2023/12/09 09:20:43;;;;;;;19.90;6.18;;;;;;;;;;4832570;29;20128;-70
2023/12/09 09:23:10;;;;;;;21.17;5.55;;;;;;;;;;4852415;29;20548;-70
2023/12/09 09:25:36;;;;;;;19.58;5.45;;;;;;;;;;4832050;29;20053;-71
2023/12/09 09:28:05;;;;;;;21.25;6.45;;;;;;;;;;4835195;29;20056;-71
2023/12/09 09:30:31;;;;;;;20.10;5.38;;;;;;;;;;4826744;29;20390;-70
2023/12/09 09:32:57;;;;;;;19.55;6.10;;;;;;;;;;4828299;29;20065;-69
2023/12/09 09:35:24;;;;;;;17.80;5.63;;;;;;;;;;4848596;29;20049;-70
2023/12/09 09:37:50;;;;;;;20.35;5.53;;;;;;;;;;4842747;29;20141;-70
2023/12/09 09:40:16;;;;;;;19.55;5.32;;;;;;;;;;4831382;29;20053;-69
2023/12/09 09:42:51;;;;;;;19.27;5.18;;;8.10;99.90;;;;;;4816336;29;20046;-69
2023/12/09 09:45:17;;;;;;;19.48;5.50;;;;;;;;;;4821067;29;20045;-69
2023/12/09 09:47:43;;;;;;;21.08;5.50;;;;;;;;;;4837785;29;20076;-69
2023/12/09 09:50:10;;;;;;;15.25;4.03;;;;;;;;;;4847968;29;20184;-69
2023/12/09 09:52:37;;;;;;;17.27;4.18;;;;;;;;;;4829383;29;20049;-69
2023/12/09 09:55:03;;;;;;;15.68;4.35;;;;;;;;;;4834501;29;20049;-70
2023/12/09 09:57:30;;;;;;;12.32;4.93;;;;;;;;;;4828160;29;20045;-69
2023/12/09 09:59:58;;;;;;;20.00;6.15;;;;;;;;;;4829525;29;20050;-70
2023/12/09 10:02:25;;;;;;;14.27;4.00;;;;;;;;;;4834491;29;20055;-70
2023/12/09 10:04:51;;;;;;;21.75;5.07;;;;;;;;;;4836715;29;20571;-70
2023/12/09 10:07:17;;;;;;;22.00;4.97;;;;;;;;;;4835774;29;20105;-68
2023/12/09 10:09:43;;;;;;;16.63;4.75;;;;;;;;;;4835694;29;20149;-68
2023/12/09 10:12:09;;;;;;;16.05;4.82;;;;;;;;;;4839053;29;20057;-69
2023/12/09 10:14:35;;;;;;;6.95;3.70;;;;;;;;;;4832971;29;20132;-69
2023/12/09 10:17:02;;;;;;;12.00;4.05;;;;;;;;;;4835290;29;20114;-69
2023/12/09 10:19:28;;;;;;;17.90;4.05;;;;;;;;;;4835952;29;20064;-68
2023/12/09 10:21:54;;;;;;;15.60;3.85;;;;;;;;;;4835267;29;20045;-69
2023/12/09 10:24:20;;;;;;;14.90;3.75;;;;;;;;;;4831727;29;20072;-70
2023/12/09 10:26:46;;;;;;;13.88;3.72;;;;;;;;;;4823077;29;20050;-70
2023/12/09 10:29:12;;;;;;;10.00;4.15;;;;;;;;;;4844751;29;20327;-70
2023/12/09 10:31:38;;;;;;;17.33;4.15;;;;;;;;;;4852750;29;20045;-71
2023/12/09 10:34:04;;;;;;;8.70;4.00;;;;;;;;;;4832934;29;20060;-70
2023/12/09 10:36:31;;;;;;;17.10;3.42;;;;;;;;;;4828072;29;20068;-69
2023/12/09 10:38:57;;;;;;;16.17;4.10;;;;;;;;;;4845566;29;20506;-70
2023/12/09 10:41:26;;;;;;;16.65;3.53;;;;;;;;;;4835623;29;20704;-70
2023/12/09 10:43:54;;;;;;;13.18;4.10;;;;;;;;;;4832826;29;20045;-70
2023/12/09 10:46:20;;;;;;;8.68;3.22;;;;;;;;;;4819160;29;20037;-70
2023/12/09 10:48:46;;;;;;;11.93;3.35;;;;;;;;;;4827024;29;20136;-70
2023/12/09 10:51:12;;;;;;;16.38;3.28;;;;;;;;;;4835768;29;20476;-70
2023/12/09 10:53:38;;;;;;;15.07;3.38;;;;;;;;;;4832538;29;20069;-71
2023/12/09 10:56:07;;;;;;;15.23;3.63;;;8.50;99.90;;;;;;4835910;29;20045;-69
2023/12/09 10:58:34;;;;;;;14.00;4.63;;;;;;;;;;4835479;29;20998;-70
2023/12/09 11:01:00;;;;;;;7.53;2.70;;;;;;;;;;4835160;29;20124;-69
2023/12/09 11:03:27;;;;;;;12.85;3.78;;;;;;;;;;4850696;29;20037;-70
2023/12/09 11:05:57;;;;;;;10.30;3.13;;;8.40;99.90;;;;;;4819683;29;20082;-71
2023/12/09 11:08:27;;;;;;;10.82;3.20;;;;;;;;;;4842689;29;20133;-70
2023/12/09 11:10:54;;;;;;;10.25;2.58;;;;;;;;;;4840758;29;20632;-69
2023/12/09 11:13:20;;;;;;;15.20;3.33;;;;;;;;;;4833865;29;20059;-70
2023/12/09 11:15:46;;;;;;;12.10;3.08;;;;;;;;;;4833559;29;20061;-71
2023/12/09 11:18:13;;;;;;;9.30;2.92;;;;;;;;;;4836466;29;20889;-71
2023/12/09 11:20:40;;;;;;;10.68;2.38;;;;;;;;;;4834625;29;20053;-70
2023/12/09 11:23:10;;;;;;;6.55;2.28;;;;;;;;;;4835931;29;20041;-70
2023/12/09 11:25:38;;;;;;;14.45;3.58;;;;;;;;;;4835308;29;20053;-70
2023/12/09 11:28:04;;;;;;;12.10;3.38;;;;;;;;;;4836443;29;20045;-69
2023/12/09 11:30:42;;;;;;;12.20;3.40;;;8.20;99.90;;;;;;4831376;29;20050;-70
2023/12/09 11:33:09;;;;;;;8.85;3.17;;;;;;;;;;4833407;29;20045;-70
2023/12/09 11:35:35;;;;;;;13.88;2.78;;;;;;;;;;4829658;29;20420;-74
2023/12/09 11:38:02;;;;;;;12.73;2.60;;;;;;;;;;4829162;29;20058;-71
2023/12/09 11:40:29;;;;;;;11.07;2.97;;;;;;;;;;4832869;29;20053;-71
2023/12/09 11:42:56;;;;;;;6.97;2.30;;;;;;;;;;4846640;29;20130;-71
2023/12/09 11:45:22;;;;;;;14.80;3.45;;;;;;;;;;4832522;29;20045;-71
2023/12/09 11:47:49;;;;;;;7.55;3.10;;;;;;;;;;4831244;29;20068;-71
2023/12/09 11:50:19;;;;;;;13.30;2.97;;;;;;;;;;4848840;29;20050;-71
2023/12/09 11:52:45;;;;;;;9.82;3.60;;;;;;;;;;4831286;29;20048;-71
2023/12/09 11:55:12;;;;;;;8.68;2.88;;;;;;;;;;4833388;29;20064;-71
2023/12/09 11:57:40;;;;;;;8.90;2.88;;;;;;;;;;4850404;29;20057;-71
2023/12/09 12:00:07;;;;;;;12.30;3.17;;;;;;;;;;4832875;29;20086;-71
2023/12/09 12:02:34;;;;;;;6.20;3.33;;;;;;;;;;4849484;29;20799;-71
2023/12/09 12:05:00;;;;;;;9.23;2.20;;;;;;;;;;4830502;29;20112;-71
2023/12/09 12:07:26;;;;;;;5.20;2.42;;;;;;;;;;4826910;29;20057;-72
2023/12/09 12:09:52;;;;;;;10.32;2.33;;;;;;;;;;4832388;29;20825;-71
2023/12/09 12:12:19;;;;;;;15.82;3.25;;;;;;;;;;4833406;29;20049;-71
2023/12/09 12:14:46;;;;;;;9.15;3.65;;;;;;;;;;4831841;29;20136;-71
2023/12/09 12:17:12;;;;;;;12.05;3.13;;;;;;;;;;4831240;29;20057;-71
2023/12/09 12:19:39;;;;;;;7.95;1.90;;;;;;;;;;4830359;29;20070;-71
2023/12/09 12:22:06;;;;;;;12.15;3.05;;;;;;;;;;4834790;29;20088;-71
2023/12/09 12:24:41;;;;;;;19.52;2.75;;;;;;;;;;4834540;29;20501;-71
2023/12/09 12:27:08;;;;;;;8.05;2.92;;;8.30;99.90;;;;;;4830414;29;20381;-71
2023/12/09 12:29:34;;;;;;;7.72;2.00;;;;;;;;;;4847561;29;20041;-71
2023/12/09 12:32:00;;;;;;;11.63;2.70;;;;;;;;;;4834858;29;20818;-72
2023/12/09 12:34:26;;;;;;;8.90;2.75;;;;;;;;;;4834312;29;20049;-72
2023/12/09 12:36:52;;;;;;;10.68;3.25;;;;;;;;;;4834280;29;20054;-72
2023/12/09 12:39:19;;;;;;;6.85;2.70;;;;;;;;;;4832328;29;20077;-72
2023/12/09 12:41:45;;;;;;;15.32;2.90;;;;;;;;;;4834196;29;20057;-72
2023/12/09 12:44:11;;;;;;;12.63;2.05;;;;;;;;;;4832994;29;20162;-72
2023/12/09 12:46:37;;;;;;;8.43;2.55;;;;;;;;;;4834038;29;20049;-72
2023/12/09 12:49:03;;;;;;;13.05;2.10;;;;;;;;;;4836826;29;20523;-72
2023/12/09 12:51:29;;;;;;;10.77;2.65;;;;;;;;;;4831757;29;20482;-74
2023/12/09 12:53:56;;;;;;;5.75;2.40;;;;;;;;;;4837887;29;20081;-72
2023/12/09 12:56:22;;;;;;;5.55;2.20;;;;;;;;;;4831488;29;20057;-72
2023/12/09 12:58:48;;;;;;;10.32;2.60;;;;;;;;;;4832035;29;20112;-72
2023/12/09 13:01:14;;;;;;;13.85;3.10;;;;;;;;;;4833003;29;20496;-72
2023/12/09 13:03:40;;;;;;;7.47;2.38;;;;;;;;;;4837614;29;20045;-72
2023/12/09 13:06:06;;;;;;;11.05;2.35;;;;;;;;;;4827641;29;20056;-72
2023/12/09 13:08:32;;;;;;;10.00;2.67;;;;;;;;;;4839472;29;20650;-71
2023/12/09 13:10:58;;;;;;;7.55;2.72;;;;;;;;;;4837264;29;20117;-73
2023/12/09 13:13:24;;;;;;;6.63;2.50;;;;;;;;;;4849156;29;20066;-72
2023/12/09 13:15:51;;;;;;;4.68;1.80;;;;;;;;;;4833769;29;20046;-71
2023/12/09 13:18:17;;;;;;;8.93;2.55;;;;;;;;;;4851627;29;20858;-72
2023/12/09 13:20:45;;;;;;;4.75;1.83;;;;;;;;;;4823237;29;20555;-72
2023/12/09 13:23:11;;;;;;;11.43;2.20;;;;;;;;;;4825784;29;20046;-72
2023/12/09 13:25:37;;;;;;;8.48;2.10;;;;;;;;;;4833815;29;20045;-72
2023/12/09 13:28:03;;;;;;;12.40;3.35;;;;;;;;;;4833173;29;20064;-71
2023/12/09 13:30:30;;;;;;;6.82;2.45;;;;;;;;;;4834650;29;20046;-72
2023/12/09 13:33:01;;;;;;;6.25;2.00;;;;;;;;;;4850274;29;20041;-72
2023/12/09 13:35:28;;;;;;;9.60;2.70;;;;;;;;;;4835541;29;20049;-72
2023/12/09 13:37:54;;;;;;;8.70;2.33;;;;;;;;;;4836438;29;20476;-72
2023/12/09 13:40:21;;;;;;;11.05;2.90;;;;;;;;;;4829269;29;20049;-74
2023/12/09 13:42:48;;;;;;;11.23;2.83;;;;;;;;;;4831187;29;20405;-72
2023/12/09 13:45:14;;;;;;;6.90;3.03;;;;;;;;;;4830303;29;20057;-73
2023/12/09 13:47:40;;;;;;;7.03;2.28;;;;;;;;;;4850457;29;20105;-72
2023/12/09 13:50:07;;;;;;;9.65;2.47;;;;;;;;;;4831183;29;20798;-72
2023/12/09 13:52:34;;;;;;;8.77;3.10;;;;;;;;;;4816986;29;20519;-72
2023/12/09 13:55:04;;;;;;;7.93;2.70;;;;;;;;;;4840976;29;20073;-72
2023/12/09 13:57:30;;;;;;;10.20;2.45;;;;;;;;;;4835877;29;20057;-72
2023/12/09 13:59:56;;;;;;;12.23;3.47;;;;;;;;;;4849215;29;20045;-72
2023/12/09 14:02:23;;;;;;;6.78;1.90;;;;;;;;;;4839684;29;20049;-72
2023/12/09 14:04:49;;;;;;;4.45;2.25;;;;;;;;;;4829050;29;20579;-71
2023/12/09 14:07:15;;;;;;;9.23;2.38;;;;;;;;;;4831705;29;20051;-72
2023/12/09 14:09:41;;;;;;;11.55;2.80;;;;;;;;;;4837123;29;20065;-72
2023/12/09 14:12:08;;;;;;;14.10;3.40;;;;;;;;;;4834788;29;20515;-72
2023/12/09 14:14:33;;;;;;;12.40;2.88;;;;;;;;;;4836818;29;20053;-72
2023/12/09 14:17:00;;;;;;;8.43;3.15;;;;;;;;;;4832072;29;20119;-72
2023/12/09 14:19:27;;;;;;;9.98;2.85;;;;;;;;;;4837434;29;20565;-72
2023/12/09 14:21:53;;;;;;;9.80;2.33;;;;;;;;;;4852815;29;20104;-72
2023/12/09 14:24:23;;;;;;;8.73;3.67;;;;;;;;;;4827536;29;20072;-71
2023/12/09 14:26:49;;;;;;;15.20;4.15;;;;;;;;;;4837324;29;20057;-72
2023/12/09 14:29:15;;;;;;;7.63;2.55;;;;;;;;;;4846504;29;20046;-72
2023/12/09 14:31:41;;;;;;;13.50;3.17;;;8.40;99.90;;;;;;4831894;29;20253;-72
2023/12/09 14:34:07;;;;;;;6.03;2.22;;;;;;;;;;4848261;29;20053;-72
2023/12/09 14:36:33;;;;;;;12.52;2.88;;;;;;;;;;4833882;29;20109;-72
2023/12/09 14:38:59;;;;;;;6.00;2.38;;;;;;;;;;4834591;29;20049;-71